sensor_id;sensor_type;location;lat;lon;timestamp;pressure;altitude;pressure_sealevel;temperature;humidity
8286;BME280;4181;43.416;24.598;2023-02-18T00:01:55;100671.66;;;10.42;100.00
8286;BME280;4181;43.416;24.598;2023-02-18T00:04:20;100686.94;;;10.43;100.00
8286;BME280;4181;43.416;24.598;2023-02-18T00:06:46;100659.66;;;10.32;100.00
8286;BME280;4181;43.416;24.598;2023-02-18T00:09:11;100675.34;;;10.36;100.00
8286;BME280;4181;43.416;24.598;2023-02-18T00:11:37;100675.09;;;10.26;100.00
8286;BME280;4181;43.416;24.598;2023-02-18T00:14:06;100688.50;;;10.28;100.00
8286;BME280;4181;43.416;24.598;2023-02-18T00:16:31;100660.13;;;10.17;100.00
8286;BME280;4181;43.416;24.598;2023-02-18T00:18:59;100681.16;;;10.28;100.00
8286;BME280;4181;43.416;24.598;2023-02-18T00:21:25;100680.28;;;10.16;100.00
8286;BME280;4181;43.416;24.598;2023-02-18T00:23:52;100677.56;;;10.16;100.00
8286;BME280;4181;43.416;24.598;2023-02-18T00:26:18;100660.13;;;10.17;100.00
8286;BME280;4181;43.416;24.598;2023-02-18T00:28:46;100663.69;;;10.17;100.00
8286;BME280;4181;43.416;24.598;2023-02-18T00:31:23;100641.03;;;10.17;100.00
8286;BME280;4181;43.416;24.598;2023-02-18T00:33:48;100643.16;;;10.15;100.00
8286;BME280;4181;43.416;24.598;2023-02-18T00:36:16;100651.53;;;9.90;100.00
8286;BME280;4181;43.416;24.598;2023-02-18T00:38:52;100645.25;;;10.01;100.00
8286;BME280;4181;43.416;24.598;2023-02-18T00:41:18;100651.59;;;10.13;100.00
8286;BME280;4181;43.416;24.598;2023-02-18T00:43:44;100621.91;;;9.94;100.00
8286;BME280;4181;43.416;24.598;2023-02-18T00:46:10;100648.94;;;10.07;100.00
8286;BME280;4181;43.416;24.598;2023-02-18T00:48:36;100648.50;;;10.10;100.00
8286;BME280;4181;43.416;24.598;2023-02-18T00:51:02;100654.69;;;10.17;100.00
8286;BME280;4181;43.416;24.598;2023-02-18T00:53:28;100624.19;;;10.08;100.00
8286;BME280;4181;43.416;24.598;2023-02-18T00:55:54;100637.47;;;10.16;100.00
8286;BME280;4181;43.416;24.598;2023-02-18T00:58:20;100612.50;;;10.08;100.00
8286;BME280;4181;43.416;24.598;2023-02-18T01:00:45;100614.97;;;10.09;100.00
8286;BME280;4181;43.416;24.598;2023-02-18T01:03:12;100633.06;;;10.04;100.00
8286;BME280;4181;43.416;24.598;2023-02-18T01:05:38;100629.00;;;9.95;100.00
8286;BME280;4181;43.416;24.598;2023-02-18T01:08:05;100635.88;;;9.86;100.00
8286;BME280;4181;43.416;24.598;2023-02-18T01:10:33;100634.16;;;9.62;100.00
8286;BME280;4181;43.416;24.598;2023-02-18T01:12:59;100620.16;;;9.47;100.00
8286;BME280;4181;43.416;24.598;2023-02-18T01:15:24;100646.00;;;9.56;100.00
8286;BME280;4181;43.416;24.598;2023-02-18T01:17:50;100617.38;;;9.35;100.00
8286;BME280;4181;43.416;24.598;2023-02-18T01:20:17;100639.31;;;9.40;100.00
8286;BME280;4181;43.416;24.598;2023-02-18T01:22:43;100633.41;;;9.43;100.00
8286;BME280;4181;43.416;24.598;2023-02-18T01:25:09;100631.97;;;9.41;100.00
8286;BME280;4181;43.416;24.598;2023-02-18T01:27:35;100636.53;;;9.29;100.00
8286;BME280;4181;43.416;24.598;2023-02-18T01:30:03;100600.72;;;9.14;100.00
8286;BME280;4181;43.416;24.598;2023-02-18T01:32:28;100621.00;;;9.18;100.00
8286;BME280;4181;43.416;24.598;2023-02-18T01:34:53;100612.78;;;9.06;100.00
8286;BME280;4181;43.416;24.598;2023-02-18T01:37:19;100614.94;;;9.16;100.00
8286;BME280;4181;43.416;24.598;2023-02-18T01:39:44;100608.34;;;9.23;100.00
8286;BME280;4181;43.416;24.598;2023-02-18T01:42:28;100594.97;;;9.22;100.00
8286;BME280;4181;43.416;24.598;2023-02-18T01:47:58;100594.72;;;8.93;100.00
8286;BME280;4181;43.416;24.598;2023-02-18T01:50:26;100589.97;;;8.89;100.00
8286;BME280;4181;43.416;24.598;2023-02-18T01:52:52;100585.56;;;9.06;100.00
8286;BME280;4181;43.416;24.598;2023-02-18T01:55:17;100586.28;;;9.13;100.00
8286;BME280;4181;43.416;24.598;2023-02-18T01:57:43;100583.03;;;9.23;100.00
8286;BME280;4181;43.416;24.598;2023-02-18T02:00:12;100597.22;;;9.25;100.00
8286;BME280;4181;43.416;24.598;2023-02-18T02:02:40;100589.28;;;9.23;100.00
8286;BME280;4181;43.416;24.598;2023-02-18T02:05:07;100585.88;;;9.28;100.00
8286;BME280;4181;43.416;24.598;2023-02-18T02:07:32;100583.97;;;9.28;100.00
8286;BME280;4181;43.416;24.598;2023-02-18T02:09:58;100591.41;;;9.51;100.00
8286;BME280;4181;43.416;24.598;2023-02-18T02:24:07;100573.22;;;9.97;100.00
8286;BME280;4181;43.416;24.598;2023-02-18T02:34:51;100554.28;;;10.65;100.00
8286;BME280;4181;43.416;24.598;2023-02-18T02:37:44;100545.50;;;10.63;100.00
8286;BME280;4181;43.416;24.598;2023-02-18T02:40:41;100543.47;;;10.70;100.00
8286;BME280;4181;43.416;24.598;2023-02-18T02:43:18;100528.88;;;10.76;100.00
8286;BME280;4181;43.416;24.598;2023-02-18T02:51:14;100526.25;;;10.81;100.00
8286;BME280;4181;43.416;24.598;2023-02-18T02:53:43;100527.41;;;10.85;100.00
8286;BME280;4181;43.416;24.598;2023-02-18T02:56:16;100526.75;;;10.95;100.00
8286;BME280;4181;43.416;24.598;2023-02-18T02:58:43;100532.22;;;10.95;100.00
8286;BME280;4181;43.416;24.598;2023-02-18T03:04:20;100526.94;;;11.16;100.00
8286;BME280;4181;43.416;24.598;2023-02-18T03:06:56;100524.66;;;11.13;100.00
8286;BME280;4181;43.416;24.598;2023-02-18T03:15:02;100530.31;;;11.23;100.00
8286;BME280;4181;43.416;24.598;2023-02-18T03:17:54;100528.16;;;11.25;100.00
8286;BME280;4181;43.416;24.598;2023-02-18T03:20:25;100512.88;;;11.24;100.00
8286;BME280;4181;43.416;24.598;2023-02-18T03:22:53;100510.81;;;11.31;100.00
8286;BME280;4181;43.416;24.598;2023-02-18T03:25:20;100511.88;;;11.47;100.00
8286;BME280;4181;43.416;24.598;2023-02-18T03:27:53;100518.00;;;11.54;100.00
8286;BME280;4181;43.416;24.598;2023-02-18T03:30:28;100509.47;;;11.50;100.00
8286;BME280;4181;43.416;24.598;2023-02-18T03:33:00;100495.72;;;11.45;100.00
8286;BME280;4181;43.416;24.598;2023-02-18T03:35:28;100509.66;;;11.61;100.00
8286;BME280;4181;43.416;24.598;2023-02-18T03:38:00;100493.75;;;11.58;100.00
8286;BME280;4181;43.416;24.598;2023-02-18T03:40:28;100496.22;;;11.59;100.00
8286;BME280;4181;43.416;24.598;2023-02-18T03:42:56;100512.81;;;11.69;100.00
8286;BME280;4181;43.416;24.598;2023-02-18T03:45:23;100493.34;;;11.66;100.00
8286;BME280;4181;43.416;24.598;2023-02-18T03:47:48;100497.25;;;11.70;100.00
8286;BME280;4181;43.416;24.598;2023-02-18T03:50:14;100501.53;;;11.82;100.00
8286;BME280;4181;43.416;24.598;2023-02-18T03:52:40;100498.81;;;11.82;100.00
8286;BME280;4181;43.416;24.598;2023-02-18T03:55:05;100517.13;;;11.98;100.00
8286;BME280;4181;43.416;24.598;2023-02-18T03:57:31;100517.25;;;12.08;100.00
8286;BME280;4181;43.416;24.598;2023-02-18T03:59:56;100511.78;;;12.08;100.00
8286;BME280;4181;43.416;24.598;2023-02-18T04:02:22;100511.72;;;12.03;100.00
8286;BME280;4181;43.416;24.598;2023-02-18T04:04:47;100499.28;;;11.96;100.00
8286;BME280;4181;43.416;24.598;2023-02-18T04:07:13;100516.16;;;12.09;100.00
8286;BME280;4181;43.416;24.598;2023-02-18T04:09:38;100521.63;;;12.09;100.00
8286;BME280;4181;43.416;24.598;2023-02-18T04:12:04;100520.38;;;12.17;100.00
8286;BME280;4181;43.416;24.598;2023-02-18T04:14:30;100517.41;;;12.18;100.00
8286;BME280;4181;43.416;24.598;2023-02-18T04:16:55;100529.66;;;12.16;100.00
8286;BME280;4181;43.416;24.598;2023-02-18T04:19:21;100515.41;;;12.14;100.00
8286;BME280;4181;43.416;24.598;2023-02-18T04:21:46;100507.19;;;12.14;100.00
8286;BME280;4181;43.416;24.598;2023-02-18T04:24:12;100483.03;;;12.06;100.00
8286;BME280;4181;43.416;24.598;2023-02-18T04:26:37;100494.94;;;12.16;100.00
8286;BME280;4181;43.416;24.598;2023-02-18T04:29:02;100505.31;;;12.14;100.00
8286;BME280;4181;43.416;24.598;2023-02-18T04:31:28;100493.00;;;12.17;100.00
8286;BME280;4181;43.416;24.598;2023-02-18T04:33:53;100479.03;;;12.13;100.00
8286;BME280;4181;43.416;24.598;2023-02-18T04:36:19;100482.50;;;12.09;100.00
8286;BME280;4181;43.416;24.598;2023-02-18T04:38:44;100481.19;;;12.11;100.00
8286;BME280;4181;43.416;24.598;2023-02-18T04:41:10;100497.34;;;12.13;100.00
8286;BME280;4181;43.416;24.598;2023-02-18T04:43:37;100495.69;;;12.12;100.00
8286;BME280;4181;43.416;24.598;2023-02-18T04:46:03;100484.72;;;12.12;100.00
8286;BME280;4181;43.416;24.598;2023-02-18T04:48:29;100492.72;;;12.13;100.00
8286;BME280;4181;43.416;24.598;2023-02-18T04:50:55;100485.38;;;12.19;100.00
8286;BME280;4181;43.416;24.598;2023-02-18T04:53:20;100481.06;;;12.23;100.00
8286;BME280;4181;43.416;24.598;2023-02-18T04:55:50;100482.06;;;12.17;100.00
8286;BME280;4181;43.416;24.598;2023-02-18T04:58:16;100475.28;;;12.19;100.00
8286;BME280;4181;43.416;24.598;2023-02-18T05:00:42;100463.06;;;12.27;100.00
8286;BME280;4181;43.416;24.598;2023-02-18T05:03:07;100463.25;;;12.20;100.00
8286;BME280;4181;43.416;24.598;2023-02-18T05:05:33;100450.72;;;12.24;100.00
8286;BME280;4181;43.416;24.598;2023-02-18T05:07:58;100453.66;;;12.18;100.00
8286;BME280;4181;43.416;24.598;2023-02-18T05:10:24;100456.38;;;12.18;100.00
8286;BME280;4181;43.416;24.598;2023-02-18T05:12:49;100453.13;;;12.21;100.00
8286;BME280;4181;43.416;24.598;2023-02-18T05:15:15;100455.50;;;12.34;100.00
8286;BME280;4181;43.416;24.598;2023-02-18T05:17:40;100456.31;;;12.34;100.00
8286;BME280;4181;43.416;24.598;2023-02-18T05:20:06;100456.72;;;12.43;100.00
8286;BME280;4181;43.416;24.598;2023-02-18T05:22:32;100451.75;;;12.40;100.00
8286;BME280;4181;43.416;24.598;2023-02-18T05:24:57;100447.47;;;12.49;100.00
8286;BME280;4181;43.416;24.598;2023-02-18T05:27:23;100445.31;;;12.51;100.00
8286;BME280;4181;43.416;24.598;2023-02-18T05:29:48;100438.72;;;12.52;100.00
8286;BME280;4181;43.416;24.598;2023-02-18T05:32:14;100457.19;;;12.61;100.00
8286;BME280;4181;43.416;24.598;2023-02-18T05:34:39;100450.06;;;12.60;100.00
8286;BME280;4181;43.416;24.598;2023-02-18T05:37:08;100449.03;;;12.66;100.00
8286;BME280;4181;43.416;24.598;2023-02-18T05:39:33;100431.22;;;12.64;100.00
8286;BME280;4181;43.416;24.598;2023-02-18T05:41:59;100445.22;;;12.67;100.00
8286;BME280;4181;43.416;24.598;2023-02-18T05:44:24;100447.69;;;12.69;100.00
8286;BME280;4181;43.416;24.598;2023-02-18T05:46:57;100443.25;;;12.63;100.00
8286;BME280;4181;43.416;24.598;2023-02-18T05:49:23;100441.63;;;12.67;100.00
8286;BME280;4181;43.416;24.598;2023-02-18T05:51:49;100440.69;;;12.78;100.00
8286;BME280;4181;43.416;24.598;2023-02-18T05:54:14;100430.16;;;12.65;100.00
8286;BME280;4181;43.416;24.598;2023-02-18T05:56:40;100441.69;;;12.72;100.00
8286;BME280;4181;43.416;24.598;2023-02-18T05:59:05;100446.16;;;12.78;100.00
8286;BME280;4181;43.416;24.598;2023-02-18T06:01:31;100442.00;;;12.75;100.00
8286;BME280;4181;43.416;24.598;2023-02-18T06:03:56;100418.00;;;12.83;100.00
8286;BME280;4181;43.416;24.598;2023-02-18T06:06:22;100410.91;;;12.87;100.00
8286;BME280;4181;43.416;24.598;2023-02-18T06:08:48;100407.56;;;12.80;100.00
8286;BME280;4181;43.416;24.598;2023-02-18T06:11:13;100406.69;;;12.74;100.00
8286;BME280;4181;43.416;24.598;2023-02-18T06:13:39;100421.03;;;12.86;100.00
8286;BME280;4181;43.416;24.598;2023-02-18T06:16:04;100435.41;;;12.98;100.00
8286;BME280;4181;43.416;24.598;2023-02-18T06:18:30;100437.88;;;13.00;100.00
8286;BME280;4181;43.416;24.598;2023-02-18T06:20:55;100430.94;;;12.92;100.00
8286;BME280;4181;43.416;24.598;2023-02-18T06:23:21;100425.59;;;13.02;100.00
8286;BME280;4181;43.416;24.598;2023-02-18T06:25:49;100434.47;;;13.14;100.00
8286;BME280;4181;43.416;24.598;2023-02-18T06:28:16;100425.06;;;13.05;100.00
8286;BME280;4181;43.416;24.598;2023-02-18T06:30:41;100443.22;;;13.11;100.00
8286;BME280;4181;43.416;24.598;2023-02-18T06:33:07;100434.25;;;13.21;100.00
8286;BME280;4181;43.416;24.598;2023-02-18T06:35:32;100431.88;;;13.29;100.00
8286;BME280;4181;43.416;24.598;2023-02-18T06:37:59;100412.69;;;13.29;100.00
8286;BME280;4181;43.416;24.598;2023-02-18T06:40:24;100423.81;;;13.49;100.00
8286;BME280;4181;43.416;24.598;2023-02-18T06:42:50;100407.81;;;13.36;100.00
8286;BME280;4181;43.416;24.598;2023-02-18T06:45:15;100405.75;;;13.53;100.00
8286;BME280;4181;43.416;24.598;2023-02-18T06:47:41;100412.84;;;13.49;100.00
8286;BME280;4181;43.416;24.598;2023-02-18T06:50:07;100411.53;;;13.62;100.00
8286;BME280;4181;43.416;24.598;2023-02-18T06:52:32;100434.09;;;13.74;100.00
8286;BME280;4181;43.416;24.598;2023-02-18T06:54:59;100429.75;;;13.78;100.00
8286;BME280;4181;43.416;24.598;2023-02-18T06:57:24;100423.44;;;13.77;100.00
8286;BME280;4181;43.416;24.598;2023-02-18T06:59:50;100426.75;;;13.79;100.00
8286;BME280;4181;43.416;24.598;2023-02-18T07:02:15;100429.22;;;13.81;100.00
8286;BME280;4181;43.416;24.598;2023-02-18T07:04:41;100438.00;;;13.83;100.00
8286;BME280;4181;43.416;24.598;2023-02-18T07:07:06;100443.03;;;13.96;100.00
8286;BME280;4181;43.416;24.598;2023-02-18T07:09:32;100442.84;;;14.13;100.00
8286;BME280;4181;43.416;24.598;2023-02-18T07:11:58;100425.28;;;14.14;100.00
8286;BME280;4181;43.416;24.598;2023-02-18T07:14:23;100444.53;;;14.24;100.00
8286;BME280;4181;43.416;24.598;2023-02-18T07:16:49;100440.66;;;14.15;100.00
8286;BME280;4181;43.416;24.598;2023-02-18T07:19:15;100441.38;;;14.47;100.00
8286;BME280;4181;43.416;24.598;2023-02-18T07:21:41;100429.66;;;14.76;100.00
8286;BME280;4181;43.416;24.598;2023-02-18T07:24:06;100417.28;;;14.84;100.00
8286;BME280;4181;43.416;24.598;2023-02-18T07:26:32;100418.69;;;14.96;100.00
8286;BME280;4181;43.416;24.598;2023-02-18T07:28:57;100417.31;;;15.04;100.00
8286;BME280;4181;43.416;24.598;2023-02-18T07:31:23;100420.63;;;15.16;100.00
8286;BME280;4181;43.416;24.598;2023-02-18T07:33:48;100423.09;;;15.27;100.00
8286;BME280;4181;43.416;24.598;2023-02-18T07:36:13;100424.78;;;15.49;100.00
8286;BME280;4181;43.416;24.598;2023-02-18T07:38:39;100417.88;;;15.56;100.00
8286;BME280;4181;43.416;24.598;2023-02-18T07:41:04;100415.06;;;15.96;100.00
8286;BME280;4181;43.416;24.598;2023-02-18T07:43:30;100389.25;;;16.41;100.00
8286;BME280;4181;43.416;24.598;2023-02-18T07:45:55;100392.94;;;16.80;100.00
8286;BME280;4181;43.416;24.598;2023-02-18T07:48:21;100394.72;;;17.33;100.00
8286;BME280;4181;43.416;24.598;2023-02-18T07:50:46;100390.19;;;17.76;100.00
8286;BME280;4181;43.416;24.598;2023-02-18T07:53:13;100371.63;;;18.05;100.00
8286;BME280;4181;43.416;24.598;2023-02-18T07:55:39;100385.59;;;18.37;100.00
8286;BME280;4181;43.416;24.598;2023-02-18T07:58:15;100364.34;;;18.56;100.00
8286;BME280;4181;43.416;24.598;2023-02-18T08:00:41;100381.75;;;18.75;100.00
8286;BME280;4181;43.416;24.598;2023-02-18T08:03:06;100347.38;;;18.81;100.00
8286;BME280;4181;43.416;24.598;2023-02-18T08:05:33;100375.25;;;18.85;100.00
8286;BME280;4181;43.416;24.598;2023-02-18T08:07:58;100390.28;;;18.60;100.00
8286;BME280;4181;43.416;24.598;2023-02-18T08:10:23;100397.81;;;18.31;100.00
8286;BME280;4181;43.416;24.598;2023-02-18T08:12:49;100385.84;;;18.17;100.00
8286;BME280;4181;43.416;24.598;2023-02-18T08:15:14;100404.34;;;17.93;100.00
8286;BME280;4181;43.416;24.598;2023-02-18T08:17:40;100389.56;;;17.84;100.00
8286;BME280;4181;43.416;24.598;2023-02-18T08:20:06;100396.03;;;17.69;100.00
8286;BME280;4181;43.416;24.598;2023-02-18T08:22:32;100407.66;;;17.66;100.00
8286;BME280;4181;43.416;24.598;2023-02-18T08:24:57;100419.00;;;17.65;100.00
8286;BME280;4181;43.416;24.598;2023-02-18T08:27:23;100395.41;;;17.54;100.00
8286;BME280;4181;43.416;24.598;2023-02-18T08:29:48;100405.88;;;17.52;100.00
8286;BME280;4181;43.416;24.598;2023-02-18T08:32:14;100386.94;;;17.40;100.00
8286;BME280;4181;43.416;24.598;2023-02-18T08:34:39;100381.03;;;17.23;100.00
8286;BME280;4181;43.416;24.598;2023-02-18T08:37:05;100396.09;;;17.31;100.00
8286;BME280;4181;43.416;24.598;2023-02-18T08:39:34;100406.63;;;17.29;100.00
8286;BME280;4181;43.416;24.598;2023-02-18T08:42:00;100404.13;;;17.32;100.00
8286;BME280;4181;43.416;24.598;2023-02-18T08:44:26;100399.44;;;17.28;100.00
8286;BME280;4181;43.416;24.598;2023-02-18T08:46:52;100392.22;;;17.37;100.00
8286;BME280;4181;43.416;24.598;2023-02-18T08:49:18;100374.94;;;17.55;100.00
8286;BME280;4181;43.416;24.598;2023-02-18T08:51:46;100391.19;;;17.85;100.00
8286;BME280;4181;43.416;24.598;2023-02-18T08:54:11;100395.13;;;18.03;100.00
8286;BME280;4181;43.416;24.598;2023-02-18T08:56:37;100398.06;;;18.11;100.00
8286;BME280;4181;43.416;24.598;2023-02-18T08:59:04;100404.72;;;18.10;100.00
8286;BME280;4181;43.416;24.598;2023-02-18T09:01:30;100407.94;;;17.94;100.00
8286;BME280;4181;43.416;24.598;2023-02-18T09:03:56;100426.59;;;17.78;100.00
8286;BME280;4181;43.416;24.598;2023-02-18T09:06:22;100421.91;;;17.79;100.00
8286;BME280;4181;43.416;24.598;2023-02-18T09:08:49;100402.06;;;18.00;100.00
8286;BME280;4181;43.416;24.598;2023-02-18T09:11:16;100406.56;;;18.38;100.00
8286;BME280;4181;43.416;24.598;2023-02-18T09:13:41;100387.91;;;18.72;100.00
8286;BME280;4181;43.416;24.598;2023-02-18T09:16:11;100359.53;;;19.18;100.00
8286;BME280;4181;43.416;24.598;2023-02-18T09:18:37;100384.28;;;19.87;100.00
8286;BME280;4181;43.416;24.598;2023-02-18T09:21:03;100381.38;;;20.24;100.00
8286;BME280;4181;43.416;24.598;2023-02-18T09:23:31;100369.22;;;20.34;100.00
8286;BME280;4181;43.416;24.598;2023-02-18T09:25:57;100364.22;;;20.71;100.00
8286;BME280;4181;43.416;24.598;2023-02-18T09:28:24;100362.59;;;20.70;100.00
8286;BME280;4181;43.416;24.598;2023-02-18T09:30:50;100351.19;;;20.72;100.00
8286;BME280;4181;43.416;24.598;2023-02-18T09:33:17;100359.19;;;20.73;100.00
8286;BME280;4181;43.416;24.598;2023-02-18T09:35:43;100372.63;;;20.44;100.00
8286;BME280;4181;43.416;24.598;2023-02-18T09:38:11;100387.59;;;20.02;100.00
8286;BME280;4181;43.416;24.598;2023-02-18T09:40:42;100384.91;;;19.38;100.00
8286;BME280;4181;43.416;24.598;2023-02-18T09:43:21;100386.91;;;19.01;100.00
8286;BME280;4181;43.416;24.598;2023-02-18T09:45:50;100375.41;;;18.75;100.00
8286;BME280;4181;43.416;24.598;2023-02-18T09:48:17;100385.28;;;18.39;100.00
8286;BME280;4181;43.416;24.598;2023-02-18T09:50:47;100406.63;;;18.33;100.00
8286;BME280;4181;43.416;24.598;2023-02-18T09:53:16;100401.16;;;18.28;100.00
8286;BME280;4181;43.416;24.598;2023-02-18T09:55:42;100386.06;;;18.44;100.00
8286;BME280;4181;43.416;24.598;2023-02-18T09:58:17;100393.13;;;18.55;100.00
8286;BME280;4181;43.416;24.598;2023-02-18T10:03:24;100370.31;;;18.21;100.00
8286;BME280;4181;43.416;24.598;2023-02-18T10:05:59;100368.56;;;18.07;100.00
8286;BME280;4181;43.416;24.598;2023-02-18T10:08:30;100388.38;;;17.90;100.00
8286;BME280;4181;43.416;24.598;2023-02-18T10:10:57;100391.78;;;17.82;100.00
8286;BME280;4181;43.416;24.598;2023-02-18T10:13:27;100384.75;;;17.66;100.00
8286;BME280;4181;43.416;24.598;2023-02-18T10:15:56;100401.41;;;17.56;100.00
8286;BME280;4181;43.416;24.598;2023-02-18T10:18:28;100395.44;;;17.49;100.00
8286;BME280;4181;43.416;24.598;2023-02-18T10:21:14;100384.44;;;17.44;100.00
8286;BME280;4181;43.416;24.598;2023-02-18T10:24:09;100371.78;;;17.38;100.00
8286;BME280;4181;43.416;24.598;2023-02-18T10:26:33;100362.50;;;17.29;100.00
8286;BME280;4181;43.416;24.598;2023-02-18T10:28:59;100370.00;;;17.23;100.00
8286;BME280;4181;43.416;24.598;2023-02-18T10:31:35;100392.78;;;17.34;100.00
8286;BME280;4181;43.416;24.598;2023-02-18T10:37:05;100378.47;;;17.32;100.00
8286;BME280;4181;43.416;24.598;2023-02-18T10:42:45;100365.84;;;17.21;100.00
8286;BME280;4181;43.416;24.598;2023-02-18T10:45:22;100373.38;;;17.15;100.00
8286;BME280;4181;43.416;24.598;2023-02-18T10:48:30;100365.94;;;17.11;100.00
8286;BME280;4181;43.416;24.598;2023-02-18T10:51:03;100353.28;;;17.10;100.00
8286;BME280;4181;43.416;24.598;2023-02-18T10:53:36;100352.44;;;17.09;100.00
8286;BME280;4181;43.416;24.598;2023-02-18T10:56:05;100352.75;;;17.08;100.00
8286;BME280;4181;43.416;24.598;2023-02-18T10:58:36;100360.22;;;17.07;100.00
8286;BME280;4181;43.416;24.598;2023-02-18T11:01:13;100345.09;;;17.00;100.00
8286;BME280;4181;43.416;24.598;2023-02-18T11:03:44;100348.69;;;17.00;100.00
8286;BME280;4181;43.416;24.598;2023-02-18T11:08:55;100334.13;;;16.95;100.00
8286;BME280;4181;43.416;24.598;2023-02-18T11:11:28;100332.53;;;16.89;100.00
8286;BME280;4181;43.416;24.598;2023-02-18T11:13:57;100320.94;;;16.87;100.00
8286;BME280;4181;43.416;24.598;2023-02-18T11:16:39;100324.53;;;16.87;100.00
8286;BME280;4181;43.416;24.598;2023-02-18T11:19:35;100336.66;;;16.86;100.00
8286;BME280;4181;43.416;24.598;2023-02-18T11:22:23;100328.69;;;16.85;100.00
8286;BME280;4181;43.416;24.598;2023-02-18T11:24:57;100323.41;;;16.88;100.00
8286;BME280;4181;43.416;24.598;2023-02-18T11:27:43;100319.31;;;16.81;100.00
8286;BME280;4181;43.416;24.598;2023-02-18T11:30:24;100315.47;;;16.82;100.00
8286;BME280;4181;43.416;24.598;2023-02-18T11:32:57;100323.22;;;16.80;100.00
8286;BME280;4181;43.416;24.598;2023-02-18T11:35:27;100320.13;;;16.86;100.00
8286;BME280;4181;43.416;24.598;2023-02-18T11:37:58;100322.59;;;16.88;100.00
8286;BME280;4181;43.416;24.598;2023-02-18T11:40:30;100306.63;;;16.85;100.00
8286;BME280;4181;43.416;24.598;2023-02-18T11:43:14;100296.34;;;16.95;100.00
8286;BME280;4181;43.416;24.598;2023-02-18T11:45:41;100302.19;;;16.89;100.00
8286;BME280;4181;43.416;24.598;2023-02-18T11:48:08;100315.97;;;16.89;100.00
8286;BME280;4181;43.416;24.598;2023-02-18T11:50:38;100300.03;;;16.81;100.00
8286;BME280;4181;43.416;24.598;2023-02-18T11:55:55;100299.44;;;16.89;100.00
8286;BME280;4181;43.416;24.598;2023-02-18T11:58:23;100309.31;;;16.95;100.00
8286;BME280;4181;43.416;24.598;2023-02-18T12:00:50;100273.56;;;16.85;100.00
8286;BME280;4181;43.416;24.598;2023-02-18T12:03:32;100296.00;;;17.02;100.00
8286;BME280;4181;43.416;24.598;2023-02-18T12:06:10;100266.88;;;16.91;100.00
8286;BME280;4181;43.416;24.598;2023-02-18T12:08:48;100277.06;;;16.95;100.00
8286;BME280;4181;43.416;24.598;2023-02-18T12:11:28;100256.75;;;16.86;100.00
8286;BME280;4181;43.416;24.598;2023-02-18T12:13:57;100273.22;;;16.91;100.00
8286;BME280;4181;43.416;24.598;2023-02-18T12:25:39;100268.63;;;16.82;100.00
8286;BME280;4181;43.416;24.598;2023-02-18T12:33:57;100237.19;;;16.83;100.00
8286;BME280;4181;43.416;24.598;2023-02-18T12:44:44;100246.25;;;16.88;100.00
8286;BME280;4181;43.416;24.598;2023-02-18T12:47:30;100248.22;;;16.83;100.00
8286;BME280;4181;43.416;24.598;2023-02-18T12:56:00;100259.72;;;16.90;100.00
8286;BME280;4181;43.416;24.598;2023-02-18T13:01:33;100252.59;;;16.89;100.00
8286;BME280;4181;43.416;24.598;2023-02-18T13:13:09;100252.84;;;16.92;100.00
8286;BME280;4181;43.416;24.598;2023-02-18T13:15:39;100258.00;;;16.99;100.00
8286;BME280;4181;43.416;24.598;2023-02-18T13:18:17;100259.88;;;17.03;100.00
8286;BME280;4181;43.416;24.598;2023-02-18T13:20:53;100243.97;;;16.95;100.00
8286;BME280;4181;43.416;24.598;2023-02-18T13:23:22;100244.19;;;17.04;100.00
8286;BME280;4181;43.416;24.598;2023-02-18T13:25:55;100229.84;;;17.02;100.00
8286;BME280;4181;43.416;24.598;2023-02-18T13:28:29;100236.41;;;17.06;100.00
8286;BME280;4181;43.416;24.598;2023-02-18T13:36:33;100239.22;;;17.01;100.00
8286;BME280;4181;43.416;24.598;2023-02-18T13:41:35;100244.72;;;17.01;100.00
8286;BME280;4181;43.416;24.598;2023-02-18T13:46:54;100254.38;;;17.03;100.00
8286;BME280;4181;43.416;24.598;2023-02-18T13:49:23;100240.34;;;17.00;100.00
8286;BME280;4181;43.416;24.598;2023-02-18T13:51:50;100252.75;;;17.02;100.00
8286;BME280;4181;43.416;24.598;2023-02-18T13:54:40;100251.13;;;16.96;100.00
8286;BME280;4181;43.416;24.598;2023-02-18T13:57:25;100254.47;;;16.93;100.00
8286;BME280;4181;43.416;24.598;2023-02-18T14:00:02;100262.75;;;16.93;100.00
8286;BME280;4181;43.416;24.598;2023-02-18T14:02:33;100258.00;;;16.99;100.00
8286;BME280;4181;43.416;24.598;2023-02-18T14:25:54;100228.63;;;16.84;100.00
8286;BME280;4181;43.416;24.598;2023-02-18T14:31:05;100230.63;;;16.79;100.00
8286;BME280;4181;43.416;24.598;2023-02-18T14:39:36;100231.28;;;16.71;100.00
8286;BME280;4181;43.416;24.598;2023-02-18T14:50:51;100241.75;;;16.69;100.00
8286;BME280;4181;43.416;24.598;2023-02-18T14:53:22;100231.03;;;16.67;100.00
8286;BME280;4181;43.416;24.598;2023-02-18T14:55:53;100238.25;;;16.58;100.00
8286;BME280;4181;43.416;24.598;2023-02-18T14:58:33;100234.66;;;16.58;100.00
8286;BME280;4181;43.416;24.598;2023-02-18T15:01:27;100236.63;;;16.57;100.00
8286;BME280;4181;43.416;24.598;2023-02-18T15:03:54;100237.22;;;16.49;100.00
8286;BME280;4181;43.416;24.598;2023-02-18T15:06:38;100231.50;;;16.40;100.00
8286;BME280;4181;43.416;24.598;2023-02-18T15:09:17;100228.72;;;16.40;100.00
8286;BME280;4181;43.416;24.598;2023-02-18T15:11:55;100232.81;;;16.48;100.00
8286;BME280;4181;43.416;24.598;2023-02-18T15:14:24;100230.38;;;16.41;100.00
8286;BME280;4181;43.416;24.598;2023-02-18T15:16:50;100235.03;;;16.41;100.00
8286;BME280;4181;43.416;24.598;2023-02-18T15:19:23;100228.19;;;16.38;100.00
8286;BME280;4181;43.416;24.598;2023-02-18T15:21:52;100216.72;;;16.26;100.00